createdAt,value
2023-03-02T00:01:49.856Z,98.90
2023-03-02T00:04:25.744Z,98.80
2023-03-02T00:06:57.487Z,98.80
2023-03-02T00:09:24.963Z,98.80
2023-03-02T00:11:52.574Z,98.70
2023-03-02T00:14:20.140Z,98.70
2023-03-02T00:16:47.607Z,98.70
2023-03-02T00:19:15.133Z,98.70
2023-03-02T00:21:42.670Z,98.70
2023-03-02T00:24:10.394Z,98.70
2023-03-02T00:26:38.083Z,98.70
2023-03-02T00:29:05.691Z,98.70
2023-03-02T00:31:34.188Z,98.70
2023-03-02T00:34:01.694Z,98.70
2023-03-02T00:36:29.192Z,98.70
2023-03-02T00:38:57.574Z,98.70
2023-03-02T00:41:24.972Z,98.70
2023-03-02T00:43:52.432Z,98.80
2023-03-02T00:46:22.449Z,98.80
2023-03-02T00:48:51.100Z,98.90
2023-03-02T00:51:19.542Z,98.90
2023-03-02T00:53:47.296Z,98.90
2023-03-02T00:56:14.790Z,98.90
2023-03-02T00:58:48.080Z,99.00
2023-03-02T01:01:18.509Z,99.00
2023-03-02T01:03:49.444Z,99.10
2023-03-02T01:06:20.513Z,99.10
2023-03-02T01:08:48.091Z,99.20
2023-03-02T01:11:18.415Z,99.20
2023-03-02T01:13:46.632Z,99.20
2023-03-02T01:16:14.394Z,99.20
2023-03-02T01:18:42.569Z,99.30
2023-03-02T01:21:15.697Z,99.30
2023-03-02T01:23:46.249Z,99.40
2023-03-02T01:26:13.706Z,99.30
2023-03-02T01:28:41.149Z,99.40
2023-03-02T01:31:08.771Z,99.40
2023-03-02T01:33:36.343Z,99.50
2023-03-02T01:36:04.155Z,99.50
2023-03-02T01:38:31.697Z,99.50
2023-03-02T01:40:59.120Z,99.60
2023-03-02T01:43:26.862Z,99.60
2023-03-02T01:45:55.724Z,99.60
2023-03-02T01:48:48.728Z,99.60
2023-03-02T01:51:24.413Z,99.60
2023-03-02T01:53:58.612Z,99.70
2023-03-02T01:56:34.779Z,99.70
2023-03-02T01:59:07.683Z,99.80
2023-03-02T02:01:37.144Z,99.70
2023-03-02T02:04:04.947Z,99.70
2023-03-02T02:06:39.308Z,99.70
2023-03-02T02:09:10.356Z,99.70
2023-03-02T02:11:38.121Z,99.80
2023-03-02T02:14:06.602Z,99.70
2023-03-02T02:16:35.206Z,99.70
2023-03-02T02:19:05.029Z,99.70
2023-03-02T02:21:32.491Z,99.70
2023-03-02T02:24:14.849Z,99.70
2023-03-02T02:26:51.728Z,99.70
2023-03-02T02:29:27.881Z,99.70
2023-03-02T02:32:23.948Z,99.70
2023-03-02T02:34:56.960Z,99.70
2023-03-02T02:37:44.864Z,99.60
2023-03-02T02:40:18.519Z,99.60
2023-03-02T02:42:49.928Z,99.50
2023-03-02T02:45:27.448Z,99.50
2023-03-02T02:47:56.252Z,99.50
2023-03-02T02:50:32.151Z,99.50
2023-03-02T02:53:21.428Z,99.50
2023-03-02T02:55:52.243Z,99.50
2023-03-02T02:58:30.241Z,99.50
2023-03-02T03:00:59.074Z,99.50
2023-03-02T03:03:33.711Z,99.50
2023-03-02T03:06:13.544Z,99.50
2023-03-02T03:08:43.893Z,99.50
2023-03-02T03:11:24.465Z,99.40
2023-03-02T03:13:58.819Z,99.40
2023-03-02T03:16:29.123Z,99.40
2023-03-02T03:19:01.629Z,99.40
2023-03-02T03:21:29.707Z,99.50
2023-03-02T03:23:57.347Z,99.40
2023-03-02T03:26:25.170Z,99.40
2023-03-02T03:28:53.420Z,99.50
2023-03-02T03:31:21.162Z,99.50
2023-03-02T03:33:49.225Z,99.40
2023-03-02T03:36:17.994Z,99.50
2023-03-02T03:38:45.902Z,99.50
2023-03-02T03:41:13.368Z,99.60
2023-03-02T03:43:41.057Z,99.50
2023-03-02T03:46:08.720Z,99.60
2023-03-02T03:48:36.168Z,99.60
2023-03-02T03:51:04.019Z,99.70
2023-03-02T03:53:31.565Z,99.70
2023-03-02T03:55:59.126Z,99.70
2023-03-02T03:58:26.636Z,99.70
2023-03-02T04:00:54.280Z,99.70
2023-03-02T04:03:22.791Z,99.70
2023-03-02T04:05:50.594Z,99.70
2023-03-02T04:08:19.463Z,99.70
2023-03-02T04:10:47.289Z,99.70
2023-03-02T04:13:14.856Z,99.70
2023-03-02T04:15:42.458Z,99.70
2023-03-02T04:18:10.054Z,99.70
2023-03-02T04:20:37.824Z,99.70
2023-03-02T04:23:05.603Z,99.70
2023-03-02T04:25:33.129Z,99.80
2023-03-02T04:28:17.656Z,99.70
2023-03-02T04:30:46.114Z,99.70
2023-03-02T04:33:13.596Z,99.70
2023-03-02T04:35:41.050Z,99.80
2023-03-02T04:38:08.517Z,99.80
2023-03-02T04:40:37.204Z,99.80
2023-03-02T04:43:04.619Z,99.80
2023-03-02T04:45:32.175Z,99.80
2023-03-02T04:47:59.645Z,99.80
2023-03-02T04:50:27.161Z,99.80
2023-03-02T04:52:54.608Z,99.80
2023-03-02T04:55:24.976Z,99.80
2023-03-02T04:57:52.400Z,99.80
2023-03-02T05:00:21.110Z,99.80
2023-03-02T05:02:48.536Z,99.90
2023-03-02T05:05:23.048Z,99.90
2023-03-02T05:07:51.267Z,99.90
2023-03-02T05:10:19.976Z,99.90
2023-03-02T05:13:02.593Z,99.90
2023-03-02T05:15:38.811Z,99.90
2023-03-02T05:18:08.094Z,99.90
2023-03-02T05:20:36.425Z,99.90
2023-03-02T05:23:07.401Z,99.90
2023-03-02T05:25:36.728Z,99.90
2023-03-02T05:28:05.832Z,99.90
2023-03-02T05:30:37.482Z,99.90
2023-03-02T05:33:05.318Z,99.90
2023-03-02T05:35:32.755Z,99.90
2023-03-02T05:38:00.278Z,99.90
2023-03-02T05:40:28.151Z,99.90
2023-03-02T05:42:55.600Z,99.90
2023-03-02T05:45:27.601Z,99.90
2023-03-02T05:47:55.705Z,99.90
2023-03-02T05:50:23.933Z,99.90
2023-03-02T05:52:51.513Z,99.90
2023-03-02T05:55:19.830Z,99.90
2023-03-02T05:57:50.677Z,99.90
2023-03-02T06:00:19.249Z,99.90
2023-03-02T06:02:47.274Z,99.90
2023-03-02T06:05:18.127Z,99.90
2023-03-02T06:07:46.159Z,99.90
2023-03-02T06:10:14.901Z,99.90
2023-03-02T06:12:42.561Z,99.90
2023-03-02T06:15:10.592Z,99.90
2023-03-02T06:17:38.418Z,99.90
2023-03-02T06:20:13.298Z,99.90
2023-03-02T06:22:45.435Z,99.90
2023-03-02T06:25:16.747Z,99.90
2023-03-02T06:27:44.841Z,99.90
2023-03-02T06:30:18.660Z,99.90
2023-03-02T06:32:46.570Z,99.90
2023-03-02T06:35:16.634Z,99.90
2023-03-02T06:37:44.777Z,99.90
2023-03-02T06:40:14.138Z,99.90
2023-03-02T06:42:43.224Z,99.90
2023-03-02T06:45:12.057Z,99.90
2023-03-02T06:47:40.470Z,99.90
2023-03-02T06:50:08.890Z,99.90
2023-03-02T06:52:36.538Z,99.90
2023-03-02T06:55:05.234Z,99.90
2023-03-02T06:57:35.968Z,99.90
2023-03-02T07:00:25.823Z,99.90
2023-03-02T07:02:54.623Z,99.90
2023-03-02T07:05:23.394Z,99.90
2023-03-02T07:07:50.917Z,99.90
2023-03-02T07:10:18.974Z,99.90
2023-03-02T07:12:46.427Z,99.90
2023-03-02T07:15:14.515Z,99.90
2023-03-02T07:17:44.115Z,99.90
2023-03-02T07:20:16.953Z,99.90
2023-03-02T07:22:44.926Z,99.90
2023-03-02T07:25:12.865Z,99.90
2023-03-02T07:27:40.838Z,99.90
2023-03-02T07:30:09.038Z,99.90
2023-03-02T07:32:36.642Z,99.90
2023-03-02T07:35:04.386Z,99.90
2023-03-02T07:37:31.846Z,99.90
2023-03-02T07:40:00.773Z,99.90
2023-03-02T07:42:28.496Z,99.90
2023-03-02T07:44:58.916Z,99.90
2023-03-02T07:47:26.465Z,99.90
2023-03-02T07:49:53.853Z,99.90
2023-03-02T07:52:21.547Z,99.90
2023-03-02T07:54:49.363Z,99.90
2023-03-02T07:57:18.199Z,99.90
2023-03-02T07:59:45.669Z,99.90
2023-03-02T08:02:16.217Z,99.90
2023-03-02T08:04:44.074Z,99.90
2023-03-02T08:07:11.548Z,99.90
2023-03-02T08:09:40.231Z,99.90
2023-03-02T08:12:07.794Z,99.90
2023-03-02T08:14:35.316Z,99.90
2023-03-02T08:17:05.157Z,99.90
2023-03-02T08:19:33.405Z,99.90
2023-03-02T08:22:01.972Z,99.90
2023-03-02T08:24:29.755Z,99.90
2023-03-02T08:27:01.006Z,99.90
2023-03-02T08:29:28.934Z,99.90
2023-03-02T08:31:58.845Z,99.90
2023-03-02T08:34:27.656Z,99.90
2023-03-02T08:36:55.120Z,99.90
2023-03-02T08:39:23.589Z,99.90
2023-03-02T08:41:54.171Z,99.90
2023-03-02T08:44:22.275Z,99.90
2023-03-02T08:46:51.500Z,99.90
2023-03-02T08:49:19.512Z,99.90
2023-03-02T08:51:49.024Z,99.90
2023-03-02T08:54:16.447Z,99.90
2023-03-02T08:56:44.568Z,99.90
2023-03-02T08:59:13.839Z,99.90
2023-03-02T09:01:42.266Z,99.90
2023-03-02T09:04:11.340Z,99.90
2023-03-02T09:06:42.583Z,99.90
2023-03-02T09:09:11.544Z,99.90
2023-03-02T09:11:39.280Z,99.90
2023-03-02T09:14:06.699Z,99.90
2023-03-02T09:16:34.244Z,99.90
2023-03-02T09:19:01.750Z,99.90
2023-03-02T09:21:29.168Z,99.90
2023-03-02T09:23:58.010Z,99.90
2023-03-02T09:26:27.145Z,99.90
2023-03-02T09:28:55.792Z,99.90
2023-03-02T09:31:23.808Z,99.90
2023-03-02T09:33:51.396Z,99.90
2023-03-02T09:36:21.977Z,99.90
2023-03-02T09:38:49.528Z,99.90
2023-03-02T09:41:20.150Z,99.90
2023-03-02T09:43:53.543Z,99.90
2023-03-02T09:46:30.509Z,99.90
2023-03-02T09:49:06.556Z,99.90
2023-03-02T09:51:47.091Z,99.90
2023-03-02T09:54:20.607Z,99.90
2023-03-02T09:56:56.156Z,99.90
2023-03-02T09:59:43.663Z,99.90
2023-03-02T10:02:23.904Z,99.90
2023-03-02T10:04:54.524Z,99.90
2023-03-02T10:07:34.876Z,99.90
2023-03-02T10:10:26.664Z,99.90
2023-03-02T10:13:16.219Z,99.70
2023-03-02T10:16:04.981Z,99.50
2023-03-02T10:19:17.836Z,99.30
2023-03-02T10:21:57.395Z,99.00
2023-03-02T10:24:49.438Z,99.10
2023-03-02T10:27:34.584Z,98.90
2023-03-02T10:30:37.346Z,98.80
2023-03-02T10:33:16.678Z,98.80
2023-03-02T10:35:49.822Z,98.50
2023-03-02T10:38:21.419Z,98.40
2023-03-02T10:41:06.501Z,98.30
2023-03-02T10:43:35.987Z,98.20
2023-03-02T10:46:09.359Z,98.20
2023-03-02T10:48:53.919Z,98.00
2023-03-02T10:51:24.345Z,97.90
2023-03-02T10:54:13.434Z,97.80
2023-03-02T10:56:50.755Z,97.50
2023-03-02T10:59:26.942Z,97.40
2023-03-02T11:02:02.950Z,97.20
2023-03-02T11:04:31.287Z,97.00
2023-03-02T11:07:15.799Z,96.80
2023-03-02T11:09:55.060Z,96.60
2023-03-02T11:12:23.791Z,96.60
2023-03-02T11:15:04.255Z,96.30
2023-03-02T11:17:36.982Z,95.80
2023-03-02T11:20:08.968Z,95.90
2023-03-02T11:22:44.550Z,95.60
2023-03-02T11:25:25.409Z,95.50
2023-03-02T11:27:59.582Z,95.30
2023-03-02T11:30:29.645Z,95.50
2023-03-02T11:33:08.377Z,95.40
2023-03-02T11:35:46.938Z,95.30
2023-03-02T11:38:48.741Z,96.00
2023-03-02T11:41:36.652Z,95.80
2023-03-02T11:44:24.757Z,95.20
2023-03-02T11:47:00.595Z,94.50
2023-03-02T11:49:42.608Z,94.00
2023-03-02T11:52:23.198Z,93.70
2023-03-02T11:55:28.291Z,93.50
2023-03-02T12:00:42.342Z,94.80
2023-03-02T12:03:15.567Z,94.50
2023-03-02T12:06:15.588Z,93.70
2023-03-02T12:08:46.154Z,93.10
2023-03-02T12:11:19.384Z,93.00
2023-03-02T12:13:59.541Z,93.00
2023-03-02T12:16:41.032Z,92.10
2023-03-02T12:19:34.107Z,91.90
2023-03-02T12:22:06.887Z,91.40
2023-03-02T12:24:40.076Z,91.00
2023-03-02T12:27:25.809Z,90.70
2023-03-02T12:30:08.600Z,90.20
2023-03-02T12:32:36.527Z,89.20
2023-03-02T12:35:12.224Z,89.40
2023-03-02T12:37:42.732Z,87.70
2023-03-02T12:40:18.975Z,87.00
2023-03-02T12:43:17.785Z,86.30
2023-03-02T12:45:55.400Z,85.10
2023-03-02T12:48:35.483Z,84.70
2023-03-02T12:51:05.180Z,84.50
2023-03-02T12:53:32.942Z,84.30
2023-03-02T12:56:00.663Z,83.50
2023-03-02T12:58:29.556Z,83.20
2023-03-02T13:01:00.586Z,82.60
2023-03-02T13:03:30.355Z,81.30
2023-03-02T13:06:13.501Z,80.50
2023-03-02T13:08:44.785Z,78.80
2023-03-02T13:11:12.998Z,78.10
2023-03-02T13:13:43.532Z,77.30
2023-03-02T13:16:26.541Z,76.00
2023-03-02T13:19:03.386Z,75.40
2023-03-02T13:21:39.152Z,75.10
2023-03-02T13:24:26.446Z,75.00
2023-03-02T13:26:59.752Z,74.30
2023-03-02T13:29:28.437Z,74.00
2023-03-02T13:31:56.148Z,73.80
2023-03-02T13:34:31.040Z,73.40
2023-03-02T13:36:58.977Z,71.50
2023-03-02T13:39:29.054Z,70.60
2023-03-02T13:42:02.042Z,69.20
2023-03-02T13:44:35.337Z,68.50
2023-03-02T13:47:03.622Z,67.90
2023-03-02T13:49:37.025Z,67.80
2023-03-02T13:52:19.980Z,66.60
2023-03-02T13:54:48.089Z,66.20
2023-03-02T13:57:21.717Z,66.60
2023-03-02T13:59:49.466Z,65.60
2023-03-02T14:02:26.021Z,64.50
2023-03-02T14:04:54.781Z,63.20
2023-03-02T14:07:23.111Z,63.10
2023-03-02T14:09:51.038Z,62.30
2023-03-02T14:12:27.038Z,62.00
2023-03-02T14:14:57.887Z,60.40
2023-03-02T14:17:25.830Z,59.80
2023-03-02T14:19:55.422Z,61.70
2023-03-02T14:22:26.129Z,61.20
2023-03-02T14:24:53.838Z,59.80
2023-03-02T14:27:28.320Z,61.80
2023-03-02T14:29:56.268Z,60.20
2023-03-02T14:32:23.827Z,59.70
2023-03-02T14:34:52.014Z,58.90
2023-03-02T14:37:24.849Z,57.80
2023-03-02T14:39:55.328Z,56.60
2023-03-02T14:42:23.531Z,56.70
2023-03-02T14:44:52.135Z,56.00
2023-03-02T14:47:20.131Z,55.80
2023-03-02T14:49:49.480Z,55.70
2023-03-02T14:52:30.838Z,55.40
2023-03-02T14:55:02.045Z,54.40
2023-03-02T14:57:33.122Z,54.60
2023-03-02T15:00:00.706Z,54.50
2023-03-02T15:02:28.513Z,53.90
2023-03-02T15:04:57.176Z,53.30
2023-03-02T15:07:27.944Z,53.00
2023-03-02T15:09:56.612Z,52.50
2023-03-02T15:12:24.744Z,52.60
2023-03-02T15:14:52.317Z,52.40
2023-03-02T15:17:20.119Z,52.70
2023-03-02T15:19:47.867Z,52.60
2023-03-02T15:22:15.782Z,52.10
2023-03-02T15:24:43.230Z,51.80
2023-03-02T15:27:10.805Z,51.90
2023-03-02T15:29:38.278Z,52.00
2023-03-02T15:32:05.982Z,52.00
2023-03-02T15:34:33.439Z,51.80
2023-03-02T15:37:01.045Z,51.40
2023-03-02T15:39:28.437Z,51.30
2023-03-02T15:41:55.800Z,51.30
2023-03-02T15:44:24.995Z,51.10
2023-03-02T15:46:57.977Z,51.20
2023-03-02T15:49:28.428Z,51.40
2023-03-02T15:51:59.827Z,51.80
2023-03-02T15:54:28.556Z,51.70
2023-03-02T15:56:56.614Z,51.70
2023-03-02T15:59:26.731Z,51.50
2023-03-02T16:01:59.126Z,51.50
2023-03-02T16:04:29.179Z,51.60
2023-03-02T16:06:57.541Z,51.50
2023-03-02T16:09:26.005Z,51.10
2023-03-02T16:11:53.730Z,51.20
2023-03-02T16:14:21.220Z,51.30
2023-03-02T16:16:48.688Z,51.40
2023-03-02T16:19:19.085Z,51.50
2023-03-02T16:21:47.598Z,51.80
2023-03-02T16:24:16.977Z,52.10
2023-03-02T16:26:45.204Z,52.30
2023-03-02T16:29:13.358Z,52.40
2023-03-02T16:31:41.943Z,52.60
2023-03-02T16:34:10.545Z,52.70
2023-03-02T16:36:40.229Z,53.30
2023-03-02T16:39:09.596Z,53.50
2023-03-02T16:41:39.574Z,53.60
2023-03-02T16:44:07.746Z,53.80
2023-03-02T16:46:37.219Z,53.80
2023-03-02T16:49:05.217Z,54.20
2023-03-02T16:51:32.722Z,54.30
2023-03-02T16:54:00.305Z,54.40
2023-03-02T16:56:27.895Z,54.70
2023-03-02T16:58:55.745Z,55.20
2023-03-02T17:01:24.504Z,55.50
2023-03-02T17:03:52.334Z,56.00
2023-03-02T17:06:22.324Z,56.40
2023-03-02T17:08:50.824Z,56.90
2023-03-02T17:11:19.421Z,57.40
2023-03-02T17:13:46.930Z,58.00
2023-03-02T17:16:16.125Z,58.60
2023-03-02T17:18:46.892Z,59.80
2023-03-02T17:21:16.677Z,59.60
2023-03-02T17:23:45.418Z,60.30
2023-03-02T17:26:13.012Z,60.90
2023-03-02T17:28:40.459Z,61.80
2023-03-02T17:31:08.469Z,62.30
2023-03-02T17:33:38.042Z,62.80
2023-03-02T17:36:08.528Z,63.40
2023-03-02T17:38:36.124Z,64.10
2023-03-02T17:41:07.935Z,64.90
2023-03-02T17:43:38.069Z,66.00
2023-03-02T17:46:15.245Z,66.80
2023-03-02T17:48:43.152Z,67.70
2023-03-02T17:51:11.766Z,68.20
2023-03-02T17:53:39.534Z,68.80
2023-03-02T17:56:07.698Z,69.60
2023-03-02T17:58:44.577Z,70.10
2023-03-02T18:01:15.794Z,70.60
2023-03-02T18:03:45.121Z,71.10
2023-03-02T18:06:13.403Z,71.40
2023-03-02T18:08:41.047Z,71.70
2023-03-02T18:11:08.571Z,71.90
2023-03-02T18:13:36.228Z,72.00
2023-03-02T18:16:04.075Z,72.00
2023-03-02T18:18:31.698Z,72.00
2023-03-02T18:20:59.328Z,72.10
2023-03-02T18:23:27.198Z,72.20
2023-03-02T18:25:54.646Z,72.40
2023-03-02T18:28:22.217Z,72.60
2023-03-02T18:30:50.087Z,72.80
2023-03-02T18:33:17.795Z,73.20
2023-03-02T18:35:45.373Z,73.40
2023-03-02T18:38:12.796Z,73.70
2023-03-02T18:40:40.335Z,74.00
2023-03-02T18:43:07.901Z,74.30
2023-03-02T18:45:35.437Z,74.70
2023-03-02T18:48:03.464Z,74.90
2023-03-02T18:50:31.046Z,75.20
2023-03-02T18:52:58.591Z,75.50
2023-03-02T18:55:26.198Z,75.80
2023-03-02T18:57:53.918Z,76.00
2023-03-02T19:00:27.714Z,76.20
2023-03-02T19:02:56.761Z,76.60
2023-03-02T19:05:26.860Z,76.80
2023-03-02T19:07:54.938Z,77.20
2023-03-02T19:10:22.439Z,77.40
2023-03-02T19:12:50.463Z,77.60
2023-03-02T19:15:18.202Z,78.00
2023-03-02T19:17:46.018Z,78.20
2023-03-02T19:20:15.935Z,78.50
2023-03-02T19:22:43.751Z,78.90
2023-03-02T19:25:11.895Z,79.30
2023-03-02T19:27:40.100Z,79.60
2023-03-02T19:30:11.582Z,80.10
2023-03-02T19:32:39.074Z,80.50
2023-03-02T19:35:07.070Z,80.90
2023-03-02T19:37:34.615Z,81.20
2023-03-02T19:40:02.192Z,81.60
2023-03-02T19:42:33.685Z,82.00
2023-03-02T19:45:03.146Z,82.30
2023-03-02T19:47:32.126Z,82.50
2023-03-02T19:49:59.782Z,82.80
2023-03-02T19:52:27.403Z,83.30
2023-03-02T19:54:54.876Z,83.60
2023-03-02T19:57:22.470Z,83.90
2023-03-02T19:59:49.841Z,84.10
2023-03-02T20:02:17.366Z,85.30
2023-03-02T20:04:46.735Z,85.30
2023-03-02T20:07:14.331Z,85.30
2023-03-02T20:09:42.447Z,85.60
2023-03-02T20:12:10.870Z,85.90
2023-03-02T20:14:40.547Z,86.10
2023-03-02T20:17:08.110Z,86.40
2023-03-02T20:19:35.530Z,86.60
2023-03-02T20:22:03.835Z,86.80
2023-03-02T20:24:31.608Z,87.10
2023-03-02T20:26:59.078Z,87.10
2023-03-02T20:29:26.898Z,87.50
2023-03-02T20:31:54.482Z,87.70
2023-03-02T20:34:22.089Z,88.10
2023-03-02T20:36:50.229Z,88.40
2023-03-02T20:39:30.599Z,88.70
2023-03-02T20:41:58.791Z,89.00
2023-03-02T20:44:30.890Z,89.10
2023-03-02T20:47:01.299Z,89.50
2023-03-02T20:49:30.121Z,89.80
2023-03-02T20:51:59.561Z,90.00
2023-03-02T20:54:37.245Z,90.10
2023-03-02T20:57:05.706Z,90.30
2023-03-02T20:59:33.394Z,90.30
2023-03-02T21:02:01.223Z,90.40
2023-03-02T21:04:28.953Z,90.50
2023-03-02T21:06:56.471Z,90.50
2023-03-02T21:09:23.911Z,90.60
2023-03-02T21:11:51.551Z,90.60
2023-03-02T21:14:19.304Z,90.70
2023-03-02T21:16:46.935Z,90.80
2023-03-02T21:19:17.383Z,90.80
2023-03-02T21:21:45.635Z,90.90
2023-03-02T21:24:18.509Z,90.90
2023-03-02T21:26:47.588Z,91.00
2023-03-02T21:29:16.761Z,91.10
2023-03-02T21:31:44.708Z,91.20
2023-03-02T21:34:13.894Z,91.20
2023-03-02T21:36:42.115Z,91.30
2023-03-02T21:39:11.814Z,91.40
2023-03-02T21:41:40.517Z,91.40
2023-03-02T21:44:09.775Z,91.50
2023-03-02T21:46:38.374Z,91.50
2023-03-02T21:49:06.372Z,91.60
2023-03-02T21:51:35.610Z,91.70
2023-03-02T21:54:03.229Z,91.80
2023-03-02T21:56:31.064Z,91.80
2023-03-02T21:58:58.852Z,91.80
2023-03-02T22:01:26.955Z,91.90
2023-03-02T22:03:54.718Z,91.90
2023-03-02T22:06:33.316Z,92.00
2023-03-02T22:09:01.846Z,92.10
2023-03-02T22:11:32.848Z,92.10
2023-03-02T22:14:17.608Z,92.10
2023-03-02T22:16:47.842Z,92.00
2023-03-02T22:19:28.282Z,92.10
2023-03-02T22:22:00.476Z,92.30
2023-03-02T22:24:30.169Z,92.30
2023-03-02T22:27:02.369Z,92.50
2023-03-02T22:29:44.533Z,92.50
2023-03-02T22:32:23.922Z,92.60
2023-03-02T22:34:54.361Z,92.60
2023-03-02T22:37:32.818Z,92.60
2023-03-02T22:40:24.602Z,92.70
2023-03-02T22:43:01.611Z,92.80
2023-03-02T22:45:29.501Z,92.80
2023-03-02T22:47:57.487Z,92.80
2023-03-02T22:50:27.926Z,92.90
2023-03-02T22:52:57.191Z,93.00
2023-03-02T22:55:42.971Z,93.00
2023-03-02T22:58:36.415Z,93.10
2023-03-02T23:01:27.407Z,93.20
2023-03-02T23:03:58.185Z,93.20
2023-03-02T23:06:25.589Z,93.00
2023-03-02T23:08:55.793Z,93.10
2023-03-02T23:11:24.642Z,93.20
2023-03-02T23:13:53.285Z,93.20
2023-03-02T23:16:28.712Z,93.20
2023-03-02T23:18:59.335Z,93.30
2023-03-02T23:21:44.340Z,93.40
2023-03-02T23:24:12.360Z,93.40
2023-03-02T23:26:40.205Z,93.50
2023-03-02T23:29:07.735Z,93.50
2023-03-02T23:31:36.251Z,93.50
2023-03-02T23:34:05.250Z,93.60
2023-03-02T23:36:32.793Z,93.60
2023-03-02T23:39:00.378Z,93.60
2023-03-02T23:41:27.997Z,93.70
2023-03-02T23:43:56.044Z,93.70
2023-03-02T23:46:23.669Z,93.70
2023-03-02T23:48:51.783Z,93.80
2023-03-02T23:51:22.283Z,93.80
2023-03-02T23:53:49.892Z,93.90
2023-03-02T23:56:17.406Z,93.90
2023-03-02T23:58:45.390Z,94.00
